Time;durP1;ratioP1;P1;durP2;ratioP2;P2;SDS_P1;SDS_P2;PMS_P1;PMS_P2;Temp;Humidity;BMP_temperature;BMP_pressure;BME280_temperature;BME280_humidity;BME280_pressure;Samples;Min_cycle;Max_cycle;Signal;HPM_P1;HPM_P2
2023/01/04 00:04:15;;;;;;;12.93;12.48;;;;;;;7.82;100.00;101870.94;10338529;28;20050;-77
2023/01/04 00:09:18;;;;;;;16.45;15.85;;;;;;;7.76;100.00;101855.47;10320131;28;20046;-76
2023/01/04 00:14:20;;;;;;;12.75;12.35;;;;;;;7.72;100.00;101848.63;10338749;28;20046;-75
2023/01/04 00:19:23;;;;;;;12.35;11.95;;;;;;;7.68;100.00;101849.59;10338400;28;20050;-76
2023/01/04 00:24:25;;;;;;;15.02;14.30;;;;;;;7.68;100.00;101832.22;10335703;28;20454;-77
2023/01/04 00:29:27;;;;;;;12.77;12.35;;;;;;;7.63;100.00;101831.47;10337244;28;20129;-76
2023/01/04 00:34:30;;;;;;;10.93;10.52;;;;;;;7.63;100.00;101831.47;10337856;28;20054;-77
2023/01/04 00:39:32;;;;;;;11.88;11.48;;;;;;;7.61;100.00;101823.72;10337000;28;20437;-76
2023/01/04 00:44:35;;;;;;;12.45;12.05;;;;;;;7.62;100.00;101814.16;10335694;28;20144;-76
2023/01/04 00:49:37;;;;;;;12.30;11.90;;;;;;;7.62;100.00;101812.41;10335319;28;20054;-75
2023/01/04 00:54:39;;;;;;;12.38;11.98;;;;;;;7.62;100.00;101808.94;10335934;28;20108;-75
2023/01/04 00:59:41;;;;;;;12.45;12.05;;;;;;;7.65;100.00;101792.34;10336811;28;20050;-74
2023/01/04 01:04:44;;;;;;;12.45;11.73;;;;;;;7.62;100.00;101775.06;10335873;28;20050;-74
2023/01/04 01:09:46;;;;;;;14.18;13.68;;;;;;;7.68;100.00;101780.06;10335559;28;20043;-74
2023/01/04 01:14:48;;;;;;;1999.90;999.90;;;;;;;7.62;100.00;101772.47;10333920;28;20490;-74
2023/01/04 01:19:51;;;;;;;27.48;26.27;;;;;;;7.73;100.00;101777.34;10318641;28;20424;-74
2023/01/04 01:24:53;;;;;;;17.67;16.98;;;;;;;7.74;100.00;101773.84;10334456;28;20097;-74
2023/01/04 01:29:55;;;;;;;16.67;16.08;;;;;;;7.89;100.00;101772.53;10334797;28;20097;-73
2023/01/04 01:34:57;;;;;;;28.58;26.88;;;;;;;7.83;100.00;101760.50;10334695;28;20050;-74
2023/01/04 01:40:00;;;;;;;17.52;16.80;;;;;;;7.98;100.00;101751.38;10335318;28;20050;-74
2023/01/04 01:45:10;;;;;;;11.90;11.50;;;;;;;8.05;100.00;101741.59;10335260;28;20050;-75
2023/01/04 01:50:23;;;;;;;12.27;11.77;;;;;;;7.98;100.00;101713.13;10332797;28;20046;-72
2023/01/04 01:55:27;;;;;;;11.73;11.32;;;;;;;8.04;100.00;101716.44;10332932;28;20077;-73
2023/01/04 02:00:30;;;;;;;12.55;12.05;;;;;;;8.07;100.00;101726.75;10332484;28;20058;-74
2023/01/04 02:05:33;;;;;;;12.52;12.13;;;;;;;8.06;100.00;101710.25;10334603;28;20054;-72
2023/01/04 02:10:36;;;;;;;13.98;13.48;;;;;;;8.14;100.00;101712.63;10331687;28;20089;-74
2023/01/04 02:15:59;;;;;;;12.32;11.93;;;;;;;8.18;100.00;101699.41;10332497;28;20540;-75
2023/01/04 02:21:15;;;;;;;81.32;53.15;;;;;;;8.19;100.00;101705.50;10329269;28;20050;-75
2023/01/04 02:26:40;;;;;;;12.68;12.27;;;;;;;8.25;100.00;101705.28;10332027;28;20054;-74
2023/01/04 02:31:55;;;;;;;11.38;10.98;;;;;;;8.29;100.00;101712.13;10292733;28;20102;-74
2023/01/04 02:37:19;;;;;;;12.18;11.77;;;;;;;8.30;100.00;101679.03;10310227;28;20054;-73
2023/01/04 02:54:05;;;;;;;11.80;11.40;;;;;;;8.41;100.00;101661.28;10331889;28;20058;-74
2023/01/04 02:59:26;;;;;;;11.90;11.50;;;;;;;8.45;100.00;101641.16;10333045;28;20452;-73
2023/01/04 03:10:24;;;;;;;12.43;11.93;;;;;;;8.52;100.00;101632.22;10331876;28;20054;-73
2023/01/04 03:15:29;;;;;;;12.50;12.00;;;;;;;8.62;100.00;101630.13;10320048;28;20498;-74
2023/01/04 03:20:31;;;;;;;30.85;25.13;;;;;;;8.65;100.00;101633.47;10338755;28;20050;-72
2023/01/04 03:37:04;;;;;;;13.07;12.63;;;;;;;8.79;100.00;101591.19;10338225;28;20078;-73
2023/01/04 03:53:04;;;;;;;11.60;11.20;;;;;;;8.91;100.00;101575.09;10338792;28;20058;-74
2023/01/04 03:58:06;;;;;;;10.40;10.10;;;;;;;8.87;100.00;101572.63;10337194;28;20046;-74
2023/01/04 04:03:09;;;;;;;8.85;8.55;;;;;;;8.87;100.00;101565.66;10339064;28;20054;-74
2023/01/04 04:08:23;;;;;;;8.45;8.15;;;;;;;9.02;100.00;101572.06;10336184;28;20405;-73
2023/01/04 04:13:26;;;;;;;8.43;8.15;;;;;;;8.92;100.00;101553.25;10337888;28;20081;-75
2023/01/04 04:18:28;;;;;;;8.95;8.65;;;;;;;9.00;100.00;101558.22;10337035;28;20116;-74
2023/01/04 04:23:30;;;;;;;8.65;8.35;;;;;;;9.09;100.00;101564.81;10337349;28;20501;-74
2023/01/04 04:28:33;;;;;;;9.95;9.65;;;;;;;9.10;100.00;101559.53;10336603;28;20548;-75
2023/01/04 04:33:35;;;;;;;8.95;8.65;;;;;;;9.19;100.00;101560.09;10336738;28;20532;-75
2023/01/04 04:38:38;;;;;;;10.50;10.10;;;;;;;9.28;100.00;101557.97;10337714;28;20050;-76
2023/01/04 04:43:40;;;;;;;12.43;11.80;;;;;;;9.10;100.00;101553.47;10336219;28;20502;-74
2023/01/04 04:48:43;;;;;;;9.88;9.57;;;;;;;9.27;100.00;101540.59;10333562;28;20050;-76
2023/01/04 04:53:45;;;;;;;16.08;15.27;;;;;;;9.25;100.00;101541.56;10335595;28;20544;-76
2023/01/04 04:58:48;;;;;;;9.57;9.27;;;;;;;9.36;100.00;101549.81;10335643;28;20058;-76
2023/01/04 05:03:50;;;;;;;10.52;10.23;;;;;;;9.30;100.00;101557.91;10336692;28;20100;-76
2023/01/04 05:08:53;;;;;;;10.40;10.00;;;;;;;9.20;100.00;101541.75;10333144;28;20042;-75
2023/01/04 05:13:55;;;;;;;12.70;12.20;;;;;;;9.22;100.00;101516.41;10335504;28;20100;-76
2023/01/04 05:18:57;;;;;;;10.13;9.82;;;;;;;9.49;100.00;101532.72;10336244;28;20058;-75
2023/01/04 05:24:00;;;;;;;9.80;9.50;;;;;;;9.41;100.00;101528.72;10335156;28;20058;-75
2023/01/04 05:29:02;;;;;;;10.48;10.07;;;;;;;9.41;100.00;101513.03;10334181;28;20042;-76
2023/01/04 05:34:04;;;;;;;9.95;9.65;;;;;;;9.28;100.00;101512.72;10334260;28;20050;-74
2023/01/04 05:39:07;;;;;;;10.68;10.27;;;;;;;9.46;100.00;101506.72;10333864;28;20053;-74
2023/01/04 05:44:09;;;;;;;9.98;9.68;;;;;;;9.52;100.00;101495.16;10332768;28;20065;-74
2023/01/04 05:49:12;;;;;;;11.00;10.60;;;;;;;9.77;100.00;101489.75;10333489;28;20452;-74
2023/01/04 05:54:14;;;;;;;10.50;10.13;;;;;;;9.63;100.00;101479.88;10332984;28;20062;-74
2023/01/04 05:59:22;;;;;;;9.32;9.02;;;;;;;9.65;100.00;101477.19;10333027;28;20078;-74
2023/01/04 06:04:25;;;;;;;9.32;9.02;;;;;;;9.70;100.00;101470.00;10331828;28;20054;-74
2023/01/04 06:09:27;;;;;;;8.82;8.52;;;;;;;9.64;100.00;101467.66;10333795;28;20042;-74
2023/01/04 06:14:29;;;;;;;9.60;9.30;;;;;;;9.69;100.00;101473.53;10332838;28;20050;-74
2023/01/04 06:19:32;;;;;;;9.38;9.07;;;;;;;9.80;100.00;101459.97;10333501;28;20049;-75
2023/01/04 06:24:34;;;;;;;9.65;9.35;;;;;;;9.75;100.00;101465.44;10330425;28;20114;-75
2023/01/04 06:29:37;;;;;;;8.00;7.80;;;;;;;9.88;100.00;101472.72;10332798;28;20046;-75
2023/01/04 06:34:39;;;;;;;8.98;8.68;;;;;;;9.91;100.00;101455.13;10333996;28;20053;-73
2023/01/04 06:39:41;;;;;;;9.30;9.00;;;;;;;9.95;100.00;101440.16;10332387;28;20105;-73
2023/01/04 06:44:43;;;;;;;10.10;9.80;;;;;;;9.89;100.00;101461.38;10333804;28;20054;-73
2023/01/04 06:49:46;;;;;;;10.73;10.38;;;;;;;10.00;100.00;101464.34;10338875;28;20042;-73
2023/01/04 06:54:48;;;;;;;9.63;9.32;;;;;;;10.08;100.00;101464.84;10340241;28;20054;-74
2023/01/04 06:59:50;;;;;;;10.20;9.82;;;;;;;9.90;100.00;101456.06;10339597;28;20435;-75
2023/01/04 07:04:53;;;;;;;9.98;9.60;;;;;;;10.05;100.00;101467.59;10338412;28;20453;-74
2023/01/04 07:09:55;;;;;;;8.93;8.63;;;;;;;10.06;100.00;101465.84;10340509;28;20050;-74
2023/01/04 07:14:58;;;;;;;28.10;25.95;;;;;;;10.27;100.00;101466.63;10340883;28;20053;-74
2023/01/04 07:20:00;;;;;;;9.65;9.35;;;;;;;10.10;100.00;101439.47;10340081;28;20497;-74
2023/01/04 07:25:03;;;;;;;13.38;12.88;;;;;;;10.32;100.00;101441.13;10340346;28;20054;-75
2023/01/04 07:30:06;;;;;;;9.88;9.57;;;;;;;10.14;100.00;101422.72;10337584;28;20046;-73
2023/01/04 07:35:08;;;;;;;8.90;8.60;;;;;;;10.27;100.00;101415.16;10337995;28;20054;-73
2023/01/04 07:40:11;;;;;;;10.25;9.85;;;;;;;10.37;100.00;101418.22;10336613;28;20054;-73
2023/01/04 07:45:13;;;;;;;10.70;10.35;;;;;;;10.29;100.00;101422.91;10338693;28;20050;-73
2023/01/04 07:50:15;;;;;;;1999.90;999.90;;;;;;;10.35;100.00;101412.19;10339207;28;20059;-72
2023/01/04 07:55:18;;;;;;;1999.90;999.90;;;;;;;10.37;100.00;101387.66;10339440;28;20061;-73
2023/01/04 08:00:20;;;;;;;1999.90;999.90;;;;;;;10.32;100.00;101383.56;10338452;28;20058;-73
2023/01/04 08:05:24;;;;;;;1999.90;999.90;;;;;;;10.38;100.00;101368.41;10331040;28;20046;-73
2023/01/04 08:10:26;;;;;;;1999.90;999.90;;;;;;;10.42;100.00;101353.41;10337026;28;20046;-73
2023/01/04 08:15:28;;;;;;;1999.90;999.90;;;;;;;10.50;100.00;101368.75;10336918;28;20046;-72
2023/01/04 08:20:31;;;;;;;1999.90;999.90;;;;;;;10.68;100.00;101373.09;10320578;28;20493;-72
2023/01/04 08:25:33;;;;;;;1999.90;999.90;;;;;;;10.55;100.00;101357.13;10347998;28;20096;-73
2023/01/04 08:30:35;;;;;;;1999.90;999.90;;;;;;;10.54;100.00;101362.44;10342593;28;20152;-73
2023/01/04 08:35:37;;;;;;;1999.90;999.90;;;;;;;10.55;100.00;101358.91;10337939;28;20055;-73
2023/01/04 08:40:40;;;;;;;1999.90;999.90;;;;;;;10.55;100.00;101356.28;10335515;28;20050;-72
2023/01/04 08:46:03;;;;;;;1999.90;999.90;;;;;;;10.68;100.00;101362.63;10335959;28;20134;-72
2023/01/04 08:51:09;;;;;;;1999.90;999.90;;;;;;;10.74;100.00;101361.47;10371927;28;20057;-72
2023/01/04 08:56:11;;;;;;;1999.90;999.90;;;;;;;10.69;100.00;101368.69;10352012;28;20502;-74
2023/01/04 09:01:13;;;;;;;1999.90;999.90;;;;;;;10.71;100.00;101361.66;10332770;28;20038;-75
2023/01/04 09:06:16;;;;;;;1999.90;999.90;;;;;;;10.70;100.00;101365.16;10334561;28;20082;-75
2023/01/04 09:11:20;;;;;;;1999.90;999.90;;;;;;;10.91;100.00;101366.75;10315682;28;20049;-75
2023/01/04 09:16:22;;;;;;;1999.90;999.90;;;;;;;10.82;100.00;101348.00;10330067;28;20482;-75
2023/01/04 09:21:25;;;;;;;1999.90;999.90;;;;;;;11.03;100.00;101349.56;10345035;28;20053;-75
2023/01/04 09:26:27;;;;;;;1999.90;999.90;;;;;;;10.97;100.00;101342.00;10329561;28;20510;-75
2023/01/04 09:31:30;;;;;;;1999.90;999.90;;;;;;;11.04;100.00;101337.28;10327703;28;20042;-76
2023/01/04 09:36:32;;;;;;;1999.90;999.90;;;;;;;11.04;100.00;101338.13;10332333;28;20050;-76
2023/01/04 09:41:37;;;;;;;1999.90;999.90;;;;;;;11.00;100.00;101348.88;10330000;28;20046;-76
2023/01/04 09:46:57;;;;;;;1999.90;999.90;;;;;;;10.95;100.00;101370.88;10330657;28;20129;-76
2023/01/04 09:52:08;;;;;;;1999.90;999.90;;;;;;;11.01;100.00;101380.25;10346552;28;20457;-75
2023/01/04 09:57:22;;;;;;;1999.90;999.90;;;;;;;11.14;100.00;101376.03;10330010;28;20054;-75
2023/01/04 10:02:41;;;;;;;1999.90;999.90;;;;;;;11.27;100.00;101388.56;10335354;28;20054;-75
2023/01/04 10:07:43;;;;;;;1999.90;999.90;;;;;;;11.09;100.00;101406.88;10331788;28;20133;-76
2023/01/04 10:13:00;;;;;;;1999.90;999.90;;;;;;;11.09;100.00;101388.53;10326681;28;20046;-77
2023/01/04 10:18:25;;;;;;;1999.90;999.90;;;;;;;11.15;100.00;101388.25;10344492;28;20043;-74
2023/01/04 10:24:20;;;;;;;1999.90;999.90;;;;;;;11.12;100.00;101385.75;10330499;28;20100;-75
2023/01/04 10:30:16;;;;;;;1999.90;999.90;;;;;;;11.15;100.00;101395.25;10318398;28;20053;-74
2023/01/04 10:35:24;;;;;;;1999.90;999.90;;;;;;;11.17;100.00;101397.81;10325612;28;20457;-75
2023/01/04 10:40:28;;;;;;;1999.90;999.90;;;;;;;11.16;100.00;101407.41;10329046;28;20046;-73
2023/01/04 10:45:54;;;;;;;1999.90;999.90;;;;;;;11.22;100.00;101393.19;10332022;28;20058;-73
2023/01/04 10:51:01;;;;;;;1999.90;999.90;;;;;;;11.24;100.00;101378.22;10328850;28;20058;-73
2023/01/04 10:56:35;;;;;;;1999.90;999.90;;;;;;;11.15;100.00;101376.91;10330945;28;20058;-73
2023/01/04 11:02:00;;;;;;;1999.90;999.90;;;;;;;11.23;100.00;101385.25;10333515;28;20046;-73
2023/01/04 11:07:12;;;;;;;1999.90;999.90;;;;;;;11.31;100.00;101383.09;10331919;28;20058;-74
2023/01/04 11:12:16;;;;;;;1999.90;999.90;;;;;;;11.22;100.00;101374.84;10331675;28;20117;-74
2023/01/04 11:17:19;;;;;;;1999.90;999.90;;;;;;;11.30;100.00;101375.28;10330730;28;20552;-74
2023/01/04 11:22:37;;;;;;;1999.90;999.90;;;;;;;11.24;100.00;101389.53;10337514;28;20042;-74
2023/01/04 11:28:07;;;;;;;1999.90;999.90;;;;;;;11.39;100.00;101366.09;10327784;28;20133;-74
2023/01/04 11:33:16;;;;;;;1999.90;999.90;;;;;;;11.40;100.00;101379.13;10293127;28;20050;-74
2023/01/04 11:38:21;;;;;;;1999.90;999.90;;;;;;;11.23;100.00;101348.53;10299916;28;20106;-74
2023/01/04 11:43:32;;;;;;;1999.90;999.90;;;;;;;11.29;100.00;101350.00;10324140;28;20054;-74
2023/01/04 11:48:34;;;;;;;1999.90;999.90;;;;;;;11.28;100.00;101349.16;10345079;28;20406;-73
2023/01/04 11:53:37;;;;;;;1999.90;999.90;;;;;;;11.33;100.00;101354.13;10379438;28;20137;-73
2023/01/04 11:58:40;;;;;;;1999.90;999.90;;;;;;;11.32;100.00;101352.47;10352328;28;20050;-73
2023/01/04 12:03:42;;;;;;;1999.90;999.90;;;;;;;11.31;100.00;101349.00;10350280;23;20415;-75
2023/01/04 12:08:45;;;;;;;1999.90;999.90;;;;;;;11.28;100.00;101336.06;10377432;28;20045;-73
2023/01/04 12:13:47;;;;;;;1999.90;999.90;;;;;;;11.26;100.00;101340.53;10378014;28;20156;-75
2023/01/04 12:18:50;;;;;;;1999.90;999.90;;;;;;;11.31;100.00;101348.13;10377280;28;20382;-75
2023/01/04 12:23:53;;;;;;;1999.90;999.90;;;;;;;11.44;100.00;101353.59;10379054;28;20061;-76
2023/01/04 12:29:23;;;;;;;1999.90;999.90;;;;;;;11.52;100.00;101351.44;10377027;28;20401;-76
2023/01/04 12:34:27;;;;;;;1999.90;999.90;;;;;;;11.60;100.00;101344.00;10377955;28;20084;-75
2023/01/04 12:39:37;;;;;;;1999.90;999.90;;;;;;;11.61;100.00;101336.97;10373041;28;20133;-76
2023/01/04 12:44:45;;;;;;;1999.90;999.90;;;;;;;11.63;100.00;101335.09;10372731;28;20046;-76
2023/01/04 12:49:56;;;;;;;1999.90;999.90;;;;;;;11.53;100.00;101338.22;10378068;28;20111;-75
2023/01/04 12:55:11;;;;;;;1999.90;999.90;;;;;;;11.59;100.00;101344.91;10377852;28;20061;-75
2023/01/04 13:00:14;;;;;;;1999.90;999.90;;;;;;;11.75;100.00;101323.97;10375847;28;20053;-76
2023/01/04 13:05:16;;;;;;;1999.90;999.90;;;;;;;11.88;100.00;101298.78;10375474;28;20062;-77
2023/01/04 13:10:54;;;;;;;1999.90;999.90;;;;;;;11.83;100.00;101294.69;10376539;28;20129;-77
2023/01/04 13:16:17;;;;;;;1999.90;999.90;;;;;;;11.80;100.00;101286.97;10376440;28;20136;-77
2023/01/04 13:21:32;;;;;;;1999.90;999.90;;;;;;;11.90;100.00;101299.53;10376657;28;20408;-78
2023/01/04 13:26:41;;;;;;;1999.90;999.90;;;;;;;11.80;100.00;101300.97;10414990;28;20053;-78
2023/01/04 13:31:50;;;;;;;1999.90;999.90;;;;;;;11.93;100.00;101308.19;10414174;28;20042;-78
2023/01/04 13:36:59;;;;;;;1999.90;999.90;;;;;;;11.97;100.00;101304.44;10375188;28;20053;-79
2023/01/04 13:42:02;;;;;;;1999.90;999.90;;;;;;;11.90;100.00;101304.78;10375071;28;20132;-80
2023/01/04 13:47:04;;;;;;;1999.90;999.90;;;;;;;11.88;100.00;101304.03;10374752;28;20054;-80
2023/01/04 13:52:23;;;;;;;1999.90;999.90;;;;;;;11.89;100.00;101300.44;10396769;28;20045;-79
2023/01/04 13:57:56;;;;;;;1999.90;999.90;;;;;;;11.86;100.00;101297.16;10382332;28;20107;-79
2023/01/04 14:03:24;;;;;;;1999.90;999.90;;;;;;;11.90;100.00;101289.03;10374536;28;20054;-79
2023/01/04 14:08:57;;;;;;;1999.90;999.90;;;;;;;11.76;100.00;101285.47;10373224;28;20081;-79
2023/01/04 14:13:59;;;;;;;1999.90;999.90;;;;;;;12.05;100.00;101271.63;10373880;28;20504;-80
2023/01/04 14:19:37;;;;;;;1999.90;999.90;;;;;;;12.04;100.00;101263.84;10373923;28;20125;-80
2023/01/04 14:24:40;;;;;;;1999.90;999.90;;;;;;;12.03;100.00;101262.97;10373921;28;20049;-80
2023/01/04 14:30:17;;;;;;;1999.90;999.90;;;;;;;11.99;100.00;101258.84;10390515;28;20136;-79
2023/01/04 14:35:20;;;;;;;1999.90;999.90;;;;;;;12.02;100.00;101266.53;10414707;28;20049;-80
2023/01/04 14:40:29;;;;;;;1999.90;999.90;;;;;;;12.18;100.00;101256.00;10409648;28;20053;-80
2023/01/04 14:45:32;;;;;;;1999.90;999.90;;;;;;;12.10;100.00;101237.22;10413534;28;20053;-79
2023/01/04 14:50:34;;;;;;;1999.90;999.90;;;;;;;11.98;100.00;101251.88;10410961;28;20049;-80
2023/01/04 14:55:37;;;;;;;1999.90;999.90;;;;;;;11.97;100.00;101247.59;10407592;28;20057;-80
2023/01/04 15:00:40;;;;;;;1999.90;999.90;;;;;;;12.17;100.00;101242.97;10413548;28;20415;-80
2023/01/04 15:05:44;;;;;;;1999.90;999.90;;;;;;;12.06;100.00;101244.44;10414025;28;20061;-80
2023/01/04 15:10:47;;;;;;;1999.90;999.90;;;;;;;11.98;100.00;101241.38;10380886;28;20056;-79
2023/01/04 15:15:54;;;;;;;1999.90;999.90;;;;;;;12.10;100.00;101233.75;10379673;28;20157;-79
2023/01/04 15:20:56;;;;;;;1999.90;999.90;;;;;;;11.98;100.00;101237.94;10379283;28;20046;-79
2023/01/04 15:26:00;;;;;;;1999.90;999.90;;;;;;;11.95;100.00;101231.06;10377853;28;20099;-80
2023/01/04 15:31:21;;;;;;;1999.90;999.90;;;;;;;11.95;100.00;101244.19;10378991;28;20457;-80
2023/01/04 15:36:37;;;;;;;1999.90;999.90;;;;;;;12.13;100.00;101238.84;10379175;28;20042;-80
2023/01/04 15:47:00;;;;;;;1999.90;999.90;;;;;;;12.06;100.00;101257.56;10379269;28;20132;-80
2023/01/04 15:52:03;;;;;;;1999.90;999.90;;;;;;;12.02;100.00;101252.56;10380501;28;20133;-81
2023/01/04 15:57:06;;;;;;;1999.90;999.90;;;;;;;11.96;100.00;101234.56;10380314;28;20053;-81
2023/01/04 16:02:10;;;;;;;1999.90;999.90;;;;;;;11.86;100.00;101244.69;10397673;28;20503;-80
2023/01/04 16:07:13;;;;;;;1999.90;999.90;;;;;;;12.01;100.00;101235.13;10413824;28;20057;-79
2023/01/04 16:17:37;;;;;;;1999.90;999.90;;;;;;;11.88;100.00;101230.56;10378653;28;20053;-80
2023/01/04 16:22:39;;;;;;;1999.90;999.90;;;;;;;11.84;100.00;101226.41;10414720;28;20052;-80
2023/01/04 16:27:43;;;;;;;37.75;35.40;;;;;;;11.97;100.00;101215.22;10408061;28;20049;-79
2023/01/04 16:32:46;;;;;;;6.25;6.05;;;;;;;11.86;100.00;101198.28;10378184;28;20484;-80
2023/01/04 16:37:48;;;;;;;6.47;6.28;;;;;;;11.98;100.00;101222.19;10400308;28;20056;-80
2023/01/04 16:42:51;;;;;;;104.32;52.42;;;;;;;11.85;100.00;101233.34;10414232;28;20532;-79
2023/01/04 16:47:54;;;;;;;10.73;10.23;;;;;;;11.85;100.00;101241.22;10404859;28;20084;-79
2023/01/04 16:52:56;;;;;;;10.18;9.88;;;;;;;11.90;100.00;101246.19;10377392;28;20394;-80
2023/01/04 16:57:59;;;;;;;10.18;9.88;;;;;;;11.71;100.00;101254.25;10376166;28;20456;-80
2023/01/04 17:03:01;;;;;;;8.15;7.95;;;;;;;11.78;100.00;101252.13;10391217;28;20050;-80
2023/01/04 17:08:04;;;;;;;8.90;8.60;;;;;;;11.75;100.00;101231.31;10390025;28;20061;-80
2023/01/04 17:13:06;;;;;;;52.53;11.65;;;;;;;11.81;100.00;101223.94;10399632;28;20407;-80
2023/01/04 17:18:11;;;;;;;11.77;11.38;;;;;;;11.75;100.00;101247.03;10377014;28;20054;-78
2023/01/04 17:23:13;;;;;;;82.72;78.72;;;;;;;11.76;100.00;101260.06;10389408;28;20455;-80
2023/01/04 17:28:16;;;;;;;26.58;24.80;;;;;;;11.67;100.00;101247.47;10398320;28;20053;-80
2023/01/04 17:33:26;;;;;;;1999.90;999.90;;;;;;;11.70;100.00;101242.03;10389356;28;20073;-81
2023/01/04 17:38:28;;;;;;;1999.90;999.90;;;;;;;11.77;100.00;101274.03;10380323;28;20100;-79
2023/01/04 17:43:30;;;;;;;1999.90;999.90;;;;;;;11.73;100.00;101260.25;10408057;28;20095;-81
2023/01/04 17:48:34;;;;;;;1999.90;999.90;;;;;;;11.64;100.00;101268.63;10416966;28;20151;-80
2023/01/04 17:53:37;;;;;;;1999.90;999.90;;;;;;;11.71;100.00;101265.56;10402939;28;20050;-80
2023/01/04 17:58:41;;;;;;;1999.90;999.90;;;;;;;11.78;100.00;101252.13;10378407;28;20049;-79
2023/01/04 18:03:45;;;;;;;1999.90;999.90;;;;;;;11.68;100.00;101272.75;10379713;28;20481;-78
2023/01/04 18:08:48;;;;;;;1999.90;999.90;;;;;;;11.60;100.00;101274.94;10395117;28;20042;-79
2023/01/04 18:13:51;;;;;;;1999.90;999.90;;;;;;;11.71;100.00;101277.84;10391495;28;20050;-80
2023/01/04 18:18:56;;;;;;;1999.90;999.90;;;;;;;11.76;100.00;101311.69;10407369;28;20045;-79
2023/01/04 18:24:01;;;;;;;1999.90;999.90;;;;;;;11.68;100.00;101309.47;10384586;28;20041;-80
2023/01/04 18:29:23;;;;;;;1999.90;999.90;;;;;;;11.72;100.00;101305.78;10376913;28;20092;-80
2023/01/04 18:34:25;;;;;;;1999.90;999.90;;;;;;;11.70;100.00;101287.50;10377123;28;20049;-79
2023/01/04 18:39:28;;;;;;;1999.90;999.90;;;;;;;11.61;100.00;101301.09;10402020;28;20056;-80
2023/01/04 18:44:30;;;;;;;1999.90;999.90;;;;;;;11.62;100.00;101284.44;10378173;28;20054;-80
2023/01/04 18:49:38;;;;;;;1999.90;999.90;;;;;;;11.57;100.00;101277.75;10387512;28;20096;-79
2023/01/04 18:54:41;;;;;;;1999.90;999.90;;;;;;;11.64;100.00;101302.72;10382545;28;20049;-80
2023/01/04 18:59:48;;;;;;;1999.90;999.90;;;;;;;11.60;100.00;101306.41;10383135;28;20053;-80
2023/01/04 19:04:51;;;;;;;1999.90;999.90;;;;;;;11.74;100.00;101305.69;10419499;28;20088;-79
2023/01/04 19:09:53;;;;;;;1999.90;999.90;;;;;;;11.67;100.00;101297.31;10391625;28;20042;-80
2023/01/04 19:14:55;;;;;;;1999.90;999.90;;;;;;;11.68;100.00;101314.72;10363326;28;20060;-79
2023/01/04 19:19:58;;;;;;;1999.90;999.90;;;;;;;11.70;100.00;101321.59;10417680;28;20481;-80
2023/01/04 19:25:00;;;;;;;1999.90;999.90;;;;;;;11.68;100.00;101354.94;10380559;28;20050;-79
2023/01/04 19:30:06;;;;;;;1999.90;999.90;;;;;;;11.74;100.00;101316.19;10378235;28;20481;-80
2023/01/04 19:35:08;;;;;;;1999.90;999.90;;;;;;;11.70;100.00;101321.59;10389711;28;20053;-80
2023/01/04 19:40:11;;;;;;;1999.90;999.90;;;;;;;11.68;100.00;101310.34;10378161;28;20481;-78
2023/01/04 19:45:13;;;;;;;1999.90;999.90;;;;;;;11.64;100.00;101318.47;10395602;28;20095;-79
2023/01/04 19:50:16;;;;;;;1999.90;999.90;;;;;;;11.73;100.00;101335.47;10395950;28;20576;-79
2023/01/04 19:55:18;;;;;;;1999.90;999.90;;;;;;;11.63;100.00;101309.75;10378755;28;20409;-80
2023/01/04 20:00:21;;;;;;;1999.90;999.90;;;;;;;11.67;100.00;101332.25;10386446;28;20052;-80
2023/01/04 20:05:23;;;;;;;1999.90;999.90;;;;;;;11.65;100.00;101334.13;10420258;28;20065;-80
2023/01/04 20:10:25;;;;;;;1999.90;999.90;;;;;;;11.66;100.00;101335.78;10418912;28;20076;-78
2023/01/04 20:15:28;;;;;;;1999.90;999.90;;;;;;;11.65;100.00;101372.59;10400021;28;20056;-78
2023/01/04 20:20:30;;;;;;;1999.90;999.90;;;;;;;11.60;100.00;101336.13;10383913;28;20042;-79
2023/01/04 20:25:36;;;;;;;1999.90;999.90;;;;;;;11.64;100.00;101345.53;10381167;28;20053;-79
2023/01/04 20:30:39;;;;;;;1999.90;999.90;;;;;;;11.62;100.00;101352.63;10404581;28;20049;-79
2023/01/04 20:35:43;;;;;;;1999.90;999.90;;;;;;;11.58;100.00;101334.50;10418544;28;20083;-79
2023/01/04 20:40:45;;;;;;;1999.90;999.90;;;;;;;11.60;100.00;101346.63;10376527;28;20489;-79
2023/01/04 20:45:48;;;;;;;1999.90;999.90;;;;;;;11.48;100.00;101342.88;10377436;28;20076;-79
2023/01/04 20:50:50;;;;;;;1999.90;999.90;;;;;;;11.43;100.00;101358.00;10376268;28;20054;-79
2023/01/04 20:55:53;;;;;;;1999.90;999.90;;;;;;;11.56;100.00;101365.22;10377412;28;20447;-79
2023/01/04 21:00:55;;;;;;;1999.90;999.90;;;;;;;11.61;100.00;101357.97;10377675;28;20046;-79
2023/01/04 21:06:01;;;;;;;1999.90;999.90;;;;;;;11.58;100.00;101351.09;10374282;28;20615;-79
2023/01/04 21:11:04;;;;;;;1999.90;999.90;;;;;;;11.47;100.00;101356.06;10378075;28;20142;-80
2023/01/04 21:16:07;;;;;;;1999.90;999.90;;;;;;;11.46;100.00;101368.31;10416938;28;20053;-79
2023/01/04 21:21:13;;;;;;;1999.90;999.90;;;;;;;11.46;100.00;101378.78;10415889;28;20091;-78
2023/01/04 21:26:17;;;;;;;1999.90;999.90;;;;;;;11.44;100.00;101367.53;10417742;28;20063;-79
2023/01/04 21:31:24;;;;;;;1999.90;999.90;;;;;;;11.53;100.00;101360.97;10361957;28;20104;-79
2023/01/04 21:36:27;;;;;;;1999.90;999.90;;;;;;;11.49;100.00;101372.56;10375902;28;20053;-80
2023/01/04 21:41:29;;;;;;;29.83;28.52;;;;;;;11.44;100.00;101374.56;10373597;28;20448;-80
2023/01/04 21:46:32;;;;;;;29.95;27.90;;;;;;;11.40;100.00;101366.03;10375487;28;20143;-79
2023/01/04 21:51:35;;;;;;;27.90;26.38;;;;;;;11.31;100.00;101390.06;10374017;28;20050;-79
2023/01/04 21:56:37;;;;;;;50.38;45.28;;;;;;;11.27;100.00;101384.16;10375805;28;20054;-79
2023/01/04 22:01:39;;;;;;;29.02;26.90;;;;;;;11.27;100.00;101392.00;10373994;28;20052;-79
2023/01/04 22:06:42;;;;;;;29.60;27.95;;;;;;;11.24;100.00;101396.56;10385272;28;20465;-79
2023/01/04 22:11:45;;;;;;;31.13;28.92;;;;;;;11.24;100.00;101401.81;10374691;28;20046;-79
2023/01/04 22:16:48;;;;;;;33.80;32.20;;;;;;;11.17;100.00;101411.75;10374262;28;20061;-80
2023/01/04 22:21:50;;;;;;;31.25;29.95;;;;;;;11.18;100.00;101409.97;10415412;28;20056;-79
2023/01/04 22:26:52;;;;;;;35.97;34.47;;;;;;;11.11;100.00;101405.06;10414247;28;20049;-79
2023/01/04 22:31:55;;;;;;;32.78;31.10;;;;;;;11.15;100.00;101411.81;10374134;28;20440;-79
2023/01/04 22:36:57;;;;;;;29.27;27.80;;;;;;;11.07;100.00;101426.25;10400991;28;20074;-79
2023/01/04 22:41:59;;;;;;;31.35;30.08;;;;;;;11.08;100.00;101412.22;10414806;28;20512;-80
2023/01/04 22:47:02;;;;;;;35.72;33.60;;;;;;;10.86;100.00;101417.66;10411854;28;20060;-80
2023/01/04 22:52:04;;;;;;;28.63;27.42;;;;;;;10.85;100.00;101427.28;10373401;28;20054;-81
2023/01/04 22:57:07;;;;;;;30.50;28.45;;;;;;;10.73;100.00;101431.34;10405858;28;20062;-80
2023/01/04 23:02:09;;;;;;;28.15;27.05;;;;;;;10.68;100.00;101450.84;10406580;28;20046;-79
2023/01/04 23:07:12;;;;;;;30.95;29.25;;;;;;;10.74;100.00;101437.41;10372464;28;20058;-79
2023/01/04 23:12:14;;;;;;;31.35;29.38;;;;;;;10.55;100.00;101455.78;10400227;28;20045;-79